createdAt,value
2022-09-10T00:02:14.237Z,80.12
2022-09-10T00:04:44.618Z,80.16
2022-09-10T00:07:15.171Z,80.18
2022-09-10T00:09:46.097Z,80.29
2022-09-10T00:12:16.412Z,80.62
2022-09-10T00:14:46.796Z,80.75
2022-09-10T00:17:17.179Z,80.63
2022-09-10T00:19:47.622Z,80.96
2022-09-10T00:22:18.007Z,81.05
2022-09-10T00:24:48.418Z,81.06
2022-09-10T00:27:18.705Z,81.30
2022-09-10T00:29:54.311Z,81.44
2022-09-10T00:32:24.630Z,81.65
2022-09-10T00:34:55.861Z,81.68
2022-09-10T00:37:26.339Z,81.44
2022-09-10T00:39:56.896Z,81.68
2022-09-10T00:42:27.564Z,81.56
2022-09-10T00:45:01.028Z,81.56
2022-09-10T00:47:37.563Z,81.91
2022-09-10T00:50:20.122Z,81.67
2022-09-10T00:52:53.309Z,81.53
2022-09-10T00:55:24.460Z,81.86
2022-09-10T00:57:58.001Z,82.24
2022-09-10T01:00:28.402Z,81.91
2022-09-10T01:03:00.158Z,81.81
2022-09-10T01:05:30.688Z,81.59
2022-09-10T01:08:01.149Z,81.70
2022-09-10T01:10:34.727Z,81.97
2022-09-10T01:13:25.506Z,82.24
2022-09-10T01:15:59.193Z,82.36
2022-09-10T01:18:41.136Z,82.33
2022-09-10T01:21:23.453Z,82.23
2022-09-10T01:24:15.157Z,82.46
2022-09-10T01:27:08.317Z,82.47
2022-09-10T01:29:41.879Z,82.17
2022-09-10T01:32:15.646Z,82.41
2022-09-10T01:34:49.088Z,82.37
2022-09-10T01:37:25.290Z,82.22
2022-09-10T01:39:58.380Z,82.38
2022-09-10T01:42:31.531Z,82.33
2022-09-10T01:45:01.926Z,82.43
2022-09-10T01:48:02.724Z,82.40
2022-09-10T01:51:08.268Z,81.98
2022-09-10T01:54:06.399Z,82.23
2022-09-10T01:56:54.319Z,82.30
2022-09-10T01:59:46.897Z,82.24
2022-09-10T02:02:20.327Z,82.85
2022-09-10T02:04:52.577Z,82.75
2022-09-10T02:07:25.195Z,82.67
2022-09-10T02:09:57.346Z,82.99
2022-09-10T02:12:28.999Z,83.00
2022-09-10T02:14:59.661Z,82.56
2022-09-10T02:17:33.538Z,82.77
2022-09-10T02:20:07.403Z,82.88
2022-09-10T02:22:39.791Z,83.08
2022-09-10T02:25:10.554Z,83.32
2022-09-10T02:27:42.613Z,82.63
2022-09-10T02:30:13.658Z,83.02
2022-09-10T02:32:44.021Z,82.74
2022-09-10T02:35:15.515Z,83.22
2022-09-10T02:37:45.885Z,82.67
2022-09-10T02:40:18.008Z,82.55
2022-09-10T02:42:48.452Z,82.95
2022-09-10T02:45:18.778Z,83.38
2022-09-10T02:47:49.178Z,83.38
2022-09-10T02:50:19.788Z,83.08
2022-09-10T02:52:51.280Z,82.25
2022-09-10T02:55:21.837Z,82.76
2022-09-10T02:57:52.514Z,82.85
2022-09-10T03:00:24.282Z,83.00
2022-09-10T03:03:00.849Z,82.96
2022-09-10T03:05:28.324Z,82.66
2022-09-10T03:07:59.511Z,82.95
2022-09-10T03:10:31.660Z,82.86
2022-09-10T03:13:02.413Z,83.07
2022-09-10T03:15:32.781Z,83.09
2022-09-10T03:18:04.219Z,83.12
2022-09-10T03:20:34.544Z,83.19
2022-09-10T03:23:04.863Z,83.21
2022-09-10T03:25:35.931Z,83.27
2022-09-10T03:28:07.064Z,83.51
2022-09-10T03:30:37.981Z,83.51
2022-09-10T03:33:08.412Z,83.35
2022-09-10T03:35:38.814Z,83.07
2022-09-10T03:38:10.709Z,83.34
2022-09-10T03:40:41.571Z,83.31
2022-09-10T03:43:12.894Z,83.44
2022-09-10T03:45:44.560Z,83.49
2022-09-10T03:48:15.149Z,83.62
2022-09-10T03:50:46.418Z,83.60
2022-09-10T03:53:17.939Z,83.01
2022-09-10T03:55:50.522Z,82.53
2022-09-10T03:58:20.864Z,82.34
2022-09-10T04:00:51.659Z,82.91
2022-09-10T04:03:22.246Z,82.83
2022-09-10T04:05:52.649Z,82.73
2022-09-10T04:08:23.212Z,82.80
2022-09-10T04:10:54.048Z,82.84
2022-09-10T04:13:24.386Z,83.22
2022-09-10T04:15:55.759Z,83.05
2022-09-10T04:18:27.334Z,83.13
2022-09-10T04:20:57.713Z,83.16
2022-09-10T04:23:29.765Z,82.91
2022-09-10T04:26:00.166Z,82.50
2022-09-10T04:28:31.033Z,82.43
2022-09-10T04:31:01.728Z,82.63
2022-09-10T04:33:33.251Z,82.90
2022-09-10T04:36:04.889Z,83.44
2022-09-10T04:38:36.966Z,83.59
2022-09-10T04:41:07.454Z,83.17
2022-09-10T04:43:38.566Z,83.55
2022-09-10T04:46:09.006Z,83.39
2022-09-10T04:48:39.957Z,83.68
2022-09-10T04:51:16.824Z,83.48
2022-09-10T04:53:44.563Z,83.64
2022-09-10T04:56:15.492Z,83.49
2022-09-10T04:58:46.184Z,83.70
2022-09-10T05:01:16.989Z,83.73
2022-09-10T05:03:47.476Z,83.85
2022-09-10T05:06:17.932Z,83.83
2022-09-10T05:08:48.280Z,83.89
2022-09-10T05:11:21.666Z,84.00
2022-09-10T05:13:52.294Z,84.12
2022-09-10T05:16:22.700Z,83.81
2022-09-10T05:18:53.223Z,83.98
2022-09-10T05:21:23.727Z,83.82
2022-09-10T05:23:55.872Z,83.56
2022-09-10T05:26:27.770Z,83.19
2022-09-10T05:28:59.611Z,82.88
2022-09-10T05:31:30.112Z,83.01
2022-09-10T05:34:01.137Z,82.86
2022-09-10T05:36:34.829Z,82.86
2022-09-10T05:39:05.853Z,82.66
2022-09-10T05:41:37.239Z,82.46
2022-09-10T05:44:08.846Z,82.60
2022-09-10T05:46:40.446Z,82.60
2022-09-10T05:49:12.547Z,82.29
2022-09-10T05:51:42.943Z,82.01
2022-09-10T05:54:13.344Z,82.17
2022-09-10T05:56:43.910Z,81.72
2022-09-10T05:59:16.313Z,80.70
2022-09-10T06:01:46.681Z,81.20
2022-09-10T06:04:18.645Z,81.55
2022-09-10T06:06:49.605Z,81.65
2022-09-10T06:09:19.848Z,81.35
2022-09-10T06:11:50.658Z,81.05
2022-09-10T06:14:21.113Z,80.81
2022-09-10T06:16:52.925Z,80.79
2022-09-10T06:19:23.299Z,80.83
2022-09-10T06:21:54.055Z,80.69
2022-09-10T06:24:25.810Z,80.48
2022-09-10T06:26:57.574Z,80.45
2022-09-10T06:29:29.349Z,79.89
2022-09-10T06:32:00.374Z,79.65
2022-09-10T06:34:31.116Z,79.73
2022-09-10T06:37:03.318Z,79.41
2022-09-10T06:39:33.826Z,79.53
2022-09-10T06:42:04.614Z,79.04
2022-09-10T06:44:35.002Z,78.90
2022-09-10T06:49:38.681Z,78.77
2022-09-10T06:52:10.637Z,78.62
2022-09-10T06:54:41.084Z,78.64
2022-09-10T06:57:11.640Z,78.88
2022-09-10T06:59:43.313Z,78.34
2022-09-10T07:02:15.279Z,78.62
2022-09-10T07:04:45.700Z,78.58
2022-09-10T07:07:15.994Z,78.38
2022-09-10T07:09:46.400Z,78.01
2022-09-10T07:12:17.396Z,77.78
2022-09-10T07:14:48.520Z,77.91
2022-09-10T07:17:20.589Z,77.55
2022-09-10T07:19:50.973Z,77.47
2022-09-10T07:22:21.566Z,78.10
2022-09-10T07:24:53.569Z,77.47
2022-09-10T07:27:23.944Z,77.17
2022-09-10T07:29:54.306Z,77.65
2022-09-10T07:32:24.609Z,78.17
2022-09-10T07:34:55.852Z,77.15
2022-09-10T07:37:26.219Z,77.36
2022-09-10T07:39:56.629Z,77.06
2022-09-10T07:42:29.321Z,76.40
2022-09-10T07:45:00.370Z,76.34
2022-09-10T07:47:30.667Z,75.81
2022-09-10T07:50:01.069Z,76.70
2022-09-10T07:52:31.661Z,76.53
2022-09-10T07:55:02.010Z,76.37
2022-09-10T07:57:34.070Z,75.34
2022-09-10T08:00:06.320Z,75.15
2022-09-10T08:02:36.708Z,75.55
2022-09-10T08:05:08.596Z,75.38
2022-09-10T08:07:40.427Z,74.38
2022-09-10T08:10:11.784Z,74.37
2022-09-10T08:12:42.708Z,73.19
2022-09-10T08:15:13.900Z,73.11
2022-09-10T08:17:44.253Z,73.42
2022-09-10T08:20:14.570Z,73.23
2022-09-10T08:22:45.040Z,72.76
2022-09-10T08:25:15.566Z,72.01
2022-09-10T08:27:45.917Z,72.37
2022-09-10T08:30:16.320Z,72.56
2022-09-10T08:32:47.158Z,71.20
2022-09-10T08:35:17.625Z,72.53
2022-09-10T08:37:48.877Z,71.57
2022-09-10T08:40:19.346Z,72.09
2022-09-10T08:42:52.677Z,70.24
2022-09-10T08:45:26.164Z,70.30
2022-09-10T08:48:10.915Z,71.27
2022-09-10T08:50:44.300Z,70.72
2022-09-10T08:53:34.448Z,69.74
2022-09-10T08:56:07.916Z,69.97
2022-09-10T08:58:47.509Z,70.76
2022-09-10T09:01:23.926Z,69.65
2022-09-10T09:03:57.743Z,68.73
2022-09-10T09:06:34.194Z,69.38
2022-09-10T09:09:05.633Z,68.43
2022-09-10T09:11:44.809Z,67.95
2022-09-10T09:14:18.294Z,66.90
2022-09-10T09:17:27.484Z,66.57
2022-09-10T09:20:18.620Z,66.74
2022-09-10T09:23:09.931Z,66.97
2022-09-10T09:25:49.645Z,65.79
2022-09-10T09:28:39.960Z,66.08
2022-09-10T09:31:16.732Z,64.60
2022-09-10T09:33:49.835Z,64.94
2022-09-10T09:36:24.119Z,64.67
2022-09-10T09:38:55.482Z,65.24
2022-09-10T09:41:28.865Z,64.45
2022-09-10T09:44:20.348Z,64.53
2022-09-10T09:46:50.732Z,64.37
2022-09-10T09:49:21.311Z,65.36
2022-09-10T09:51:51.877Z,64.91
2022-09-10T09:56:59.248Z,64.32
2022-09-10T09:59:32.286Z,64.76
2022-09-10T10:02:09.122Z,64.87
2022-09-10T10:04:42.485Z,63.80
2022-09-10T10:07:12.987Z,64.15
2022-09-10T10:09:44.719Z,64.06
2022-09-10T10:12:20.596Z,62.94
2022-09-10T10:14:51.412Z,63.28
2022-09-10T10:17:33.724Z,62.66
2022-09-10T10:20:15.477Z,62.89
2022-09-10T10:22:49.486Z,62.38
2022-09-10T10:25:42.421Z,62.77
2022-09-10T10:28:22.077Z,61.42
2022-09-10T10:30:55.644Z,61.21
2022-09-10T10:33:28.924Z,61.98
2022-09-10T10:36:08.230Z,60.07
2022-09-10T10:38:50.710Z,59.81
2022-09-10T10:41:32.641Z,59.22
2022-09-10T10:44:27.122Z,59.98
2022-09-10T10:47:24.695Z,59.92
2022-09-10T10:49:58.412Z,59.90
2022-09-10T10:52:46.783Z,60.73
2022-09-10T10:55:26.574Z,60.80
2022-09-10T10:58:18.422Z,60.92
2022-09-10T11:00:54.927Z,58.32
2022-09-10T11:03:36.230Z,60.35
2022-09-10T11:06:09.343Z,58.42
2022-09-10T11:08:59.457Z,58.66
2022-09-10T11:11:32.855Z,58.53
2022-09-10T11:14:17.750Z,58.59
2022-09-10T11:16:59.923Z,58.46
2022-09-10T11:19:35.040Z,56.85
2022-09-10T11:22:23.535Z,56.44
2022-09-10T11:25:00.502Z,54.42
2022-09-10T11:27:43.210Z,54.42
2022-09-10T11:30:17.002Z,53.74
2022-09-10T11:33:13.128Z,47.27
2022-09-10T11:35:55.456Z,41.24
2022-09-10T11:38:45.581Z,37.87
2022-09-10T11:41:22.442Z,34.70
2022-09-10T11:44:14.054Z,33.00
2022-09-10T11:46:47.502Z,31.83
2022-09-10T11:49:24.282Z,31.21
2022-09-10T11:51:55.967Z,32.61
2022-09-10T11:54:34.542Z,33.79
2022-09-10T11:57:31.138Z,35.87
2022-09-10T12:00:14.993Z,42.71
2022-09-10T12:02:48.366Z,45.30
2022-09-10T12:05:24.886Z,47.65
2022-09-10T12:08:13.658Z,49.52
2022-09-10T12:11:04.675Z,51.47
2022-09-10T12:13:39.328Z,55.22
2022-09-10T12:16:13.778Z,56.23
2022-09-10T12:18:47.382Z,58.02
2022-09-10T12:21:39.370Z,57.65
2022-09-10T12:24:27.653Z,57.72
2022-09-10T12:27:00.009Z,55.83
2022-09-10T12:29:40.681Z,55.97
2022-09-10T12:32:23.113Z,55.66
2022-09-10T12:35:30.356Z,55.50
2022-09-10T12:38:37.332Z,54.55
2022-09-10T12:41:27.101Z,54.11
2022-09-10T12:43:59.332Z,54.73
2022-09-10T12:46:31.185Z,54.51
2022-09-10T12:49:07.510Z,53.89
2022-09-10T12:51:52.941Z,53.21
2022-09-10T12:54:37.974Z,52.52
2022-09-10T12:57:40.355Z,50.74
2022-09-10T13:00:22.604Z,51.98
2022-09-10T13:03:01.707Z,53.55
2022-09-10T13:05:41.003Z,54.37
2022-09-10T13:08:20.489Z,55.46
2022-09-10T13:10:59.814Z,54.25
2022-09-10T13:13:38.950Z,55.96
2022-09-10T13:16:12.617Z,55.63
2022-09-10T13:18:43.199Z,56.55
2022-09-10T13:21:28.430Z,57.47
2022-09-10T13:23:59.151Z,57.79
2022-09-10T13:26:37.088Z,57.97
2022-09-10T13:29:28.570Z,58.23
2022-09-10T13:32:20.381Z,58.89
2022-09-10T13:35:21.096Z,57.82
2022-09-10T13:38:23.353Z,54.96
2022-09-10T13:40:59.659Z,56.52
2022-09-10T13:44:01.192Z,55.58
2022-09-10T13:46:40.169Z,54.49
2022-09-10T13:49:34.819Z,55.80
2022-09-10T13:52:08.611Z,54.80
2022-09-10T13:54:42.488Z,56.92
2022-09-10T13:57:24.607Z,58.02
2022-09-10T14:00:00.691Z,60.08
2022-09-10T14:02:42.497Z,60.43
2022-09-10T14:05:34.102Z,61.04
2022-09-10T14:08:10.402Z,62.31
2022-09-10T14:10:55.890Z,62.88
2022-09-10T14:13:49.029Z,63.68
2022-09-10T14:16:26.163Z,63.04
2022-09-10T14:18:59.148Z,63.80
2022-09-10T14:21:30.105Z,62.16
2022-09-10T14:24:00.870Z,62.61
2022-09-10T14:26:34.251Z,62.68
2022-09-10T14:29:25.169Z,63.53
2022-09-10T14:31:55.967Z,63.14
2022-09-10T14:34:34.832Z,63.97
2022-09-10T14:37:25.054Z,63.65
2022-09-10T14:39:56.679Z,63.82
2022-09-10T14:42:29.746Z,64.24
2022-09-10T14:45:00.313Z,63.58
2022-09-10T14:47:35.766Z,63.31
2022-09-10T14:50:25.699Z,62.24
2022-09-10T14:52:56.514Z,61.70
2022-09-10T14:55:30.661Z,60.87
2022-09-10T14:58:01.138Z,60.69
2022-09-10T15:00:31.978Z,62.13
2022-09-10T15:03:03.962Z,61.04
2022-09-10T15:05:34.364Z,62.32
2022-09-10T15:08:04.667Z,61.70
2022-09-10T15:10:35.058Z,62.22
2022-09-10T15:13:07.225Z,61.45
2022-09-10T15:15:37.608Z,61.18
2022-09-10T15:18:17.251Z,61.57
2022-09-10T15:20:47.616Z,62.75
2022-09-10T15:23:19.723Z,63.48
2022-09-10T15:25:52.544Z,63.46
2022-09-10T15:28:22.855Z,64.56
2022-09-10T15:30:53.282Z,63.45
2022-09-10T15:33:24.392Z,64.11
2022-09-10T15:35:54.776Z,64.68
2022-09-10T15:38:25.731Z,65.08
2022-09-10T15:40:59.174Z,65.27
2022-09-10T15:43:29.962Z,65.18
2022-09-10T15:46:02.660Z,65.84
2022-09-10T15:48:36.687Z,65.99
2022-09-10T15:51:13.647Z,66.44
2022-09-10T15:53:45.951Z,66.56
2022-09-10T15:56:16.838Z,67.10
2022-09-10T15:58:56.569Z,67.19
2022-09-10T16:01:31.255Z,66.05
2022-09-10T16:04:05.676Z,66.19
2022-09-10T16:06:39.311Z,66.95
2022-09-10T16:09:12.646Z,66.98
2022-09-10T16:11:45.517Z,66.99
2022-09-10T16:14:17.932Z,66.92
2022-09-10T16:16:49.309Z,67.14
2022-09-10T16:19:20.741Z,67.61
2022-09-10T16:21:52.338Z,68.75
2022-09-10T16:24:22.716Z,67.85
2022-09-10T16:26:53.035Z,67.52
2022-09-10T16:29:23.640Z,67.63
2022-09-10T16:31:54.538Z,66.95
2022-09-10T16:34:25.081Z,67.34
2022-09-10T16:36:55.490Z,66.60
2022-09-10T16:39:25.778Z,67.41
2022-09-10T16:41:59.379Z,67.23
2022-09-10T16:44:30.379Z,67.34
2022-09-10T16:47:01.837Z,68.29
2022-09-10T16:49:32.577Z,67.49
2022-09-10T16:52:03.144Z,68.63
2022-09-10T16:54:33.899Z,69.28
2022-09-10T16:57:07.240Z,69.49
2022-09-10T16:59:37.599Z,69.59
2022-09-10T17:02:08.039Z,70.26
2022-09-10T17:04:38.392Z,69.65
2022-09-10T17:07:09.573Z,70.30
2022-09-10T17:09:40.110Z,70.15
2022-09-10T17:12:10.603Z,70.73
2022-09-10T17:14:42.251Z,70.63
2022-09-10T17:17:13.922Z,70.58
2022-09-10T17:19:44.307Z,69.58
2022-09-10T17:22:14.752Z,69.68
2022-09-10T17:24:46.861Z,70.30
2022-09-10T17:27:17.542Z,69.95
2022-09-10T17:29:48.404Z,68.92
2022-09-10T17:32:18.872Z,69.62
2022-09-10T17:34:50.489Z,69.79
2022-09-10T17:37:20.809Z,70.38
2022-09-10T17:39:55.143Z,70.20
2022-09-10T17:42:25.590Z,69.74
2022-09-10T17:44:55.890Z,68.68
2022-09-10T17:47:27.157Z,69.59
2022-09-10T17:49:58.370Z,69.72
2022-09-10T17:52:28.759Z,70.20
2022-09-10T17:54:59.148Z,70.38
2022-09-10T17:57:29.514Z,70.72
2022-09-10T18:00:00.182Z,71.72
2022-09-10T18:02:31.493Z,71.83
2022-09-10T18:05:01.966Z,72.34
2022-09-10T18:07:32.300Z,72.83
2022-09-10T18:10:03.518Z,72.69
2022-09-10T18:12:33.885Z,71.97
2022-09-10T18:15:04.360Z,71.95
2022-09-10T18:17:34.385Z,72.11
2022-09-10T18:20:05.012Z,71.35
2022-09-10T18:22:35.387Z,71.87
2022-09-10T18:25:06.635Z,71.73
2022-09-10T18:27:37.741Z,71.68
2022-09-10T18:30:08.951Z,72.53
2022-09-10T18:32:39.373Z,73.25
2022-09-10T18:35:09.847Z,73.45
2022-09-10T18:37:40.393Z,73.09
2022-09-10T18:40:12.034Z,73.33
2022-09-10T18:42:46.137Z,73.10
2022-09-10T18:45:14.620Z,73.68
2022-09-10T18:47:45.461Z,73.62
2022-09-10T18:50:15.935Z,73.76
2022-09-10T18:52:46.281Z,73.75
2022-09-10T18:55:16.656Z,74.39
2022-09-10T18:57:47.338Z,74.59
2022-09-10T19:00:17.822Z,74.92
2022-09-10T19:02:48.393Z,75.64
2022-09-10T19:05:19.023Z,75.14
2022-09-10T19:07:49.835Z,75.05
2022-09-10T19:10:21.415Z,75.50
2022-09-10T19:12:51.895Z,75.70
2022-09-10T19:15:22.197Z,76.12
2022-09-10T19:17:53.527Z,75.80
2022-09-10T19:20:25.546Z,75.81
2022-09-10T19:22:55.986Z,75.98
2022-09-10T19:25:26.365Z,76.12
2022-09-10T19:27:57.913Z,75.57
2022-09-10T19:30:30.634Z,75.62
2022-09-10T19:33:00.291Z,75.75
2022-09-10T19:35:30.788Z,76.09
2022-09-10T19:38:08.682Z,75.97
2022-09-10T19:40:33.292Z,76.58
2022-09-10T19:43:03.935Z,76.63
2022-09-10T19:45:35.544Z,76.99
2022-09-10T19:48:05.922Z,76.57
2022-09-10T19:50:37.195Z,76.71
2022-09-10T19:53:07.581Z,76.91
2022-09-10T19:55:37.911Z,77.29
2022-09-10T19:58:08.750Z,77.18
2022-09-10T20:00:46.827Z,77.32
2022-09-10T20:03:12.582Z,77.70
2022-09-10T20:05:42.935Z,77.87
2022-09-10T20:08:13.597Z,78.10
2022-09-10T20:10:47.148Z,78.50
2022-09-10T20:13:17.659Z,78.60
2022-09-10T20:15:49.420Z,78.83
2022-09-10T20:18:20.116Z,77.88
2022-09-10T20:20:51.041Z,77.07
2022-09-10T20:23:21.827Z,78.18
2022-09-10T20:25:52.141Z,78.60
2022-09-10T20:28:22.903Z,79.02
2022-09-10T20:30:53.319Z,79.26
2022-09-10T20:33:23.769Z,79.56
2022-09-10T20:35:54.173Z,79.73
2022-09-10T20:38:24.588Z,80.26
2022-09-10T20:40:54.964Z,80.04
2022-09-10T20:43:25.350Z,80.33
2022-09-10T20:45:57.083Z,80.25
2022-09-10T20:48:28.025Z,80.33
2022-09-10T20:51:00.980Z,80.06
2022-09-10T20:53:34.480Z,80.40
2022-09-10T20:56:10.283Z,80.57
2022-09-10T20:58:40.991Z,80.55
2022-09-10T21:01:19.201Z,81.04
2022-09-10T21:03:53.543Z,80.96
2022-09-10T21:06:26.680Z,81.22
2022-09-10T21:08:57.070Z,81.27
2022-09-10T21:11:30.968Z,81.46
2022-09-10T21:14:03.466Z,81.77
2022-09-10T21:16:39.708Z,81.17
2022-09-10T21:19:16.031Z,81.66
2022-09-10T21:21:48.824Z,82.00
2022-09-10T21:24:22.333Z,82.29
2022-09-10T21:26:53.584Z,82.54
2022-09-10T21:29:24.032Z,82.80
2022-09-10T21:31:56.124Z,82.98
2022-09-10T21:34:26.643Z,82.99
2022-09-10T21:36:57.074Z,82.84
2022-09-10T21:39:27.384Z,83.08
2022-09-10T21:41:58.450Z,83.09
2022-09-10T21:44:28.748Z,83.08
2022-09-10T21:46:59.456Z,83.26
2022-09-10T21:49:29.771Z,83.26
2022-09-10T21:52:00.147Z,83.36
2022-09-10T21:54:30.593Z,83.64
2022-09-10T21:57:00.975Z,83.66
2022-09-10T21:59:31.345Z,83.71
2022-09-10T22:02:01.804Z,83.83
2022-09-10T22:04:32.229Z,83.74
2022-09-10T22:07:04.186Z,83.76
2022-09-10T22:09:34.441Z,84.00
2022-09-10T22:12:05.058Z,84.11
2022-09-10T22:14:35.437Z,84.01
2022-09-10T22:17:05.826Z,84.06
2022-09-10T22:19:36.131Z,84.18
2022-09-10T22:22:06.558Z,84.20
2022-09-10T22:24:36.932Z,84.41
2022-09-10T22:27:07.242Z,84.26
2022-09-10T22:29:37.712Z,84.18
2022-09-10T22:32:08.033Z,84.27
2022-09-10T22:34:38.894Z,84.27
2022-09-10T22:37:09.280Z,84.29
2022-09-10T22:39:40.490Z,84.31
2022-09-10T22:42:11.009Z,84.39
2022-09-10T22:44:41.485Z,84.55
2022-09-10T22:47:11.949Z,84.68
2022-09-10T22:49:42.336Z,84.65
2022-09-10T22:52:12.733Z,84.65
2022-09-10T22:54:43.111Z,84.76
2022-09-10T22:57:13.594Z,84.76
2022-09-10T22:59:44.276Z,84.70
2022-09-10T23:02:15.635Z,84.80
2022-09-10T23:04:45.938Z,84.85
2022-09-10T23:07:16.502Z,84.71
2022-09-10T23:09:46.995Z,84.80
2022-09-10T23:12:19.025Z,84.98
2022-09-10T23:14:49.546Z,85.05
2022-09-10T23:17:22.569Z,85.13
2022-09-10T23:19:51.882Z,85.17
2022-09-10T23:22:22.300Z,85.10
2022-09-10T23:24:52.680Z,85.39
2022-09-10T23:27:23.263Z,85.34
2022-09-10T23:29:53.647Z,85.35
2022-09-10T23:32:23.959Z,85.21
2022-09-10T23:34:54.420Z,85.32
2022-09-10T23:37:25.513Z,85.28
2022-09-10T23:39:56.464Z,85.42
2022-09-10T23:42:27.068Z,85.60
2022-09-10T23:44:57.358Z,85.56
2022-09-10T23:47:27.678Z,85.70
2022-09-10T23:49:58.065Z,85.72
2022-09-10T23:52:29.126Z,85.65
2022-09-10T23:55:00.159Z,85.67
2022-09-10T23:57:30.486Z,85.78
